sensor_id;sensor_type;location;lat;lon;timestamp;P1;durP1;ratioP1;P2;durP2;ratioP2
45730;SDS011;31440;48.584;13.460;2022-08-03T00:01:52;4.00;;;2.65;;
45730;SDS011;31440;48.584;13.460;2022-08-03T00:04:18;3.78;;;3.38;;
45730;SDS011;31440;48.584;13.460;2022-08-03T00:06:43;3.30;;;3.05;;
45730;SDS011;31440;48.584;13.460;2022-08-03T00:09:09;4.43;;;3.45;;
45730;SDS011;31440;48.584;13.460;2022-08-03T00:11:35;4.40;;;3.35;;
45730;SDS011;31440;48.584;13.460;2022-08-03T00:14:02;5.38;;;3.78;;
45730;SDS011;31440;48.584;13.460;2022-08-03T00:16:30;6.50;;;4.13;;
45730;SDS011;31440;48.584;13.460;2022-08-03T00:18:55;3.60;;;3.40;;
45730;SDS011;31440;48.584;13.460;2022-08-03T00:21:21;4.82;;;4.25;;
45730;SDS011;31440;48.584;13.460;2022-08-03T00:23:47;3.78;;;3.38;;
45730;SDS011;31440;48.584;13.460;2022-08-03T00:26:12;3.70;;;3.40;;
45730;SDS011;31440;48.584;13.460;2022-08-03T00:28:38;4.40;;;3.92;;
45730;SDS011;31440;48.584;13.460;2022-08-03T00:31:04;4.38;;;3.97;;
45730;SDS011;31440;48.584;13.460;2022-08-03T00:33:29;4.22;;;3.85;;
45730;SDS011;31440;48.584;13.460;2022-08-03T00:35:55;4.57;;;3.38;;
45730;SDS011;31440;48.584;13.460;2022-08-03T00:38:20;7.53;;;4.20;;
45730;SDS011;31440;48.584;13.460;2022-08-03T00:40:46;4.15;;;3.38;;
45730;SDS011;31440;48.584;13.460;2022-08-03T00:43:11;5.50;;;3.80;;
45730;SDS011;31440;48.584;13.460;2022-08-03T00:45:38;3.50;;;3.20;;
45730;SDS011;31440;48.584;13.460;2022-08-03T00:48:06;3.78;;;3.42;;
45730;SDS011;31440;48.584;13.460;2022-08-03T00:50:33;9.38;;;3.92;;
45730;SDS011;31440;48.584;13.460;2022-08-03T00:53:01;5.95;;;3.65;;
45730;SDS011;31440;48.584;13.460;2022-08-03T00:55:28;3.55;;;3.25;;
45730;SDS011;31440;48.584;13.460;2022-08-03T00:57:54;4.60;;;4.20;;
45730;SDS011;31440;48.584;13.460;2022-08-03T01:00:22;4.35;;;3.30;;
45730;SDS011;31440;48.584;13.460;2022-08-03T01:02:49;4.15;;;3.85;;
45730;SDS011;31440;48.584;13.460;2022-08-03T01:05:15;4.03;;;3.63;;
45730;SDS011;31440;48.584;13.460;2022-08-03T01:07:44;5.03;;;3.20;;
45730;SDS011;31440;48.584;13.460;2022-08-03T01:10:22;3.90;;;3.58;;
45730;SDS011;31440;48.584;13.460;2022-08-03T01:13:00;3.13;;;2.92;;
45730;SDS011;31440;48.584;13.460;2022-08-03T01:15:49;4.15;;;3.47;;
45730;SDS011;31440;48.584;13.460;2022-08-03T01:18:25;3.80;;;3.50;;
45730;SDS011;31440;48.584;13.460;2022-08-03T01:20:56;5.43;;;3.38;;
45730;SDS011;31440;48.584;13.460;2022-08-03T01:26:36;4.03;;;3.72;;
45730;SDS011;31440;48.584;13.460;2022-08-03T01:31:41;3.85;;;3.38;;
45730;SDS011;31440;48.584;13.460;2022-08-03T01:34:13;7.18;;;3.70;;
45730;SDS011;31440;48.584;13.460;2022-08-03T01:36:47;3.85;;;3.47;;
45730;SDS011;31440;48.584;13.460;2022-08-03T01:39:16;3.97;;;3.58;;
45730;SDS011;31440;48.584;13.460;2022-08-03T01:41:49;5.05;;;3.83;;
45730;SDS011;31440;48.584;13.460;2022-08-03T01:44:23;4.15;;;3.83;;
45730;SDS011;31440;48.584;13.460;2022-08-03T01:46:51;4.00;;;3.58;;
45730;SDS011;31440;48.584;13.460;2022-08-03T01:49:18;4.53;;;3.38;;
45730;SDS011;31440;48.584;13.460;2022-08-03T01:51:44;4.82;;;3.78;;
45730;SDS011;31440;48.584;13.460;2022-08-03T01:54:12;3.50;;;3.20;;
45730;SDS011;31440;48.584;13.460;2022-08-03T01:56:39;4.68;;;3.90;;
45730;SDS011;31440;48.584;13.460;2022-08-03T01:59:07;6.72;;;4.47;;
45730;SDS011;31440;48.584;13.460;2022-08-03T02:01:35;4.07;;;3.78;;
45730;SDS011;31440;48.584;13.460;2022-08-03T02:04:01;4.25;;;3.67;;
45730;SDS011;31440;48.584;13.460;2022-08-03T02:06:30;5.90;;;4.28;;
45730;SDS011;31440;48.584;13.460;2022-08-03T02:08:58;3.97;;;3.67;;
45730;SDS011;31440;48.584;13.460;2022-08-03T02:11:25;4.35;;;3.42;;
45730;SDS011;31440;48.584;13.460;2022-08-03T02:13:52;5.15;;;4.25;;
45730;SDS011;31440;48.584;13.460;2022-08-03T02:16:20;3.65;;;3.35;;
45730;SDS011;31440;48.584;13.460;2022-08-03T02:18:46;4.80;;;3.65;;
45730;SDS011;31440;48.584;13.460;2022-08-03T02:21:12;5.15;;;3.92;;
45730;SDS011;31440;48.584;13.460;2022-08-03T02:23:39;4.07;;;3.63;;
45730;SDS011;31440;48.584;13.460;2022-08-03T02:26:06;4.30;;;3.75;;
45730;SDS011;31440;48.584;13.460;2022-08-03T02:28:39;5.20;;;4.28;;
45730;SDS011;31440;48.584;13.460;2022-08-03T02:31:10;9.20;;;3.92;;
45730;SDS011;31440;48.584;13.460;2022-08-03T02:33:43;7.60;;;4.47;;
45730;SDS011;31440;48.584;13.460;2022-08-03T02:36:15;5.45;;;4.03;;
45730;SDS011;31440;48.584;13.460;2022-08-03T02:38:46;4.57;;;4.18;;
45730;SDS011;31440;48.584;13.460;2022-08-03T02:41:17;4.07;;;3.67;;
45730;SDS011;31440;48.584;13.460;2022-08-03T02:43:48;5.35;;;3.90;;
45730;SDS011;31440;48.584;13.460;2022-08-03T02:46:19;5.55;;;4.00;;
45730;SDS011;31440;48.584;13.460;2022-08-03T02:48:47;6.35;;;3.80;;
45730;SDS011;31440;48.584;13.460;2022-08-03T02:51:14;5.93;;;3.67;;
45730;SDS011;31440;48.584;13.460;2022-08-03T02:53:44;9.82;;;4.32;;
45730;SDS011;31440;48.584;13.460;2022-08-03T02:56:10;4.18;;;3.85;;
45730;SDS011;31440;48.584;13.460;2022-08-03T02:58:38;6.32;;;3.88;;
45730;SDS011;31440;48.584;13.460;2022-08-03T03:01:07;4.60;;;4.20;;
45730;SDS011;31440;48.584;13.460;2022-08-03T03:03:33;3.95;;;3.55;;
45730;SDS011;31440;48.584;13.460;2022-08-03T03:05:59;4.28;;;3.88;;
45730;SDS011;31440;48.584;13.460;2022-08-03T03:08:27;5.38;;;3.80;;
45730;SDS011;31440;48.584;13.460;2022-08-03T03:10:53;4.10;;;3.70;;
45730;SDS011;31440;48.584;13.460;2022-08-03T03:13:26;5.10;;;4.60;;
45730;SDS011;31440;48.584;13.460;2022-08-03T03:15:53;4.70;;;3.92;;
45730;SDS011;31440;48.584;13.460;2022-08-03T03:18:20;4.30;;;3.90;;
45730;SDS011;31440;48.584;13.460;2022-08-03T03:20:48;4.63;;;4.22;;
45730;SDS011;31440;48.584;13.460;2022-08-03T03:23:15;3.90;;;3.50;;
45730;SDS011;31440;48.584;13.460;2022-08-03T03:25:41;5.88;;;3.90;;
45730;SDS011;31440;48.584;13.460;2022-08-03T03:28:08;4.68;;;4.13;;
45730;SDS011;31440;48.584;13.460;2022-08-03T03:30:35;5.38;;;4.85;;
45730;SDS011;31440;48.584;13.460;2022-08-03T03:33:00;4.47;;;4.07;;
45730;SDS011;31440;48.584;13.460;2022-08-03T03:35:27;5.38;;;3.97;;
45730;SDS011;31440;48.584;13.460;2022-08-03T03:37:52;5.07;;;4.13;;
45730;SDS011;31440;48.584;13.460;2022-08-03T03:40:19;4.88;;;4.43;;
45730;SDS011;31440;48.584;13.460;2022-08-03T03:42:45;4.55;;;4.15;;
45730;SDS011;31440;48.584;13.460;2022-08-03T03:45:11;4.78;;;4.07;;
45730;SDS011;31440;48.584;13.460;2022-08-03T03:47:37;6.15;;;3.78;;
45730;SDS011;31440;48.584;13.460;2022-08-03T03:50:03;4.43;;;4.03;;
45730;SDS011;31440;48.584;13.460;2022-08-03T03:52:30;5.07;;;4.18;;
45730;SDS011;31440;48.584;13.460;2022-08-03T03:54:56;4.63;;;4.22;;
45730;SDS011;31440;48.584;13.460;2022-08-03T03:57:22;8.13;;;5.10;;
45730;SDS011;31440;48.584;13.460;2022-08-03T03:59:47;5.82;;;4.32;;
45730;SDS011;31440;48.584;13.460;2022-08-03T04:02:13;4.45;;;4.03;;
45730;SDS011;31440;48.584;13.460;2022-08-03T04:04:39;5.43;;;4.63;;
45730;SDS011;31440;48.584;13.460;2022-08-03T04:07:24;4.75;;;3.95;;
45730;SDS011;31440;48.584;13.460;2022-08-03T04:10:14;4.82;;;4.10;;
45730;SDS011;31440;48.584;13.460;2022-08-03T04:13:05;4.13;;;3.83;;
45730;SDS011;31440;48.584;13.460;2022-08-03T04:15:34;4.10;;;3.80;;
45730;SDS011;31440;48.584;13.460;2022-08-03T04:18:02;4.68;;;4.03;;
45730;SDS011;31440;48.584;13.460;2022-08-03T04:20:29;3.95;;;3.55;;
45730;SDS011;31440;48.584;13.460;2022-08-03T04:22:59;3.80;;;3.40;;
45730;SDS011;31440;48.584;13.460;2022-08-03T04:25:27;6.80;;;3.90;;
45730;SDS011;31440;48.584;13.460;2022-08-03T04:27:58;5.20;;;3.80;;
45730;SDS011;31440;48.584;13.460;2022-08-03T04:30:26;4.43;;;4.03;;
45730;SDS011;31440;48.584;13.460;2022-08-03T04:32:57;5.13;;;3.70;;
45730;SDS011;31440;48.584;13.460;2022-08-03T04:35:23;5.97;;;4.78;;
45730;SDS011;31440;48.584;13.460;2022-08-03T04:37:53;5.05;;;3.78;;
45730;SDS011;31440;48.584;13.460;2022-08-03T04:40:30;4.75;;;4.28;;
45730;SDS011;31440;48.584;13.460;2022-08-03T04:42:58;4.88;;;4.43;;
45730;SDS011;31440;48.584;13.460;2022-08-03T04:45:25;4.60;;;4.20;;
45730;SDS011;31440;48.584;13.460;2022-08-03T04:47:52;4.22;;;3.72;;
45730;SDS011;31440;48.584;13.460;2022-08-03T04:50:19;5.20;;;3.80;;
45730;SDS011;31440;48.584;13.460;2022-08-03T04:53:02;4.40;;;3.95;;
45730;SDS011;31440;48.584;13.460;2022-08-03T04:55:30;5.20;;;4.03;;
45730;SDS011;31440;48.584;13.460;2022-08-03T04:57:57;5.60;;;4.10;;
45730;SDS011;31440;48.584;13.460;2022-08-03T05:00:23;5.03;;;3.90;;
45730;SDS011;31440;48.584;13.460;2022-08-03T05:02:50;5.00;;;4.50;;
45730;SDS011;31440;48.584;13.460;2022-08-03T05:05:16;4.22;;;3.83;;
45730;SDS011;31440;48.584;13.460;2022-08-03T05:07:42;8.10;;;3.80;;
45730;SDS011;31440;48.584;13.460;2022-08-03T05:10:09;4.50;;;3.95;;
45730;SDS011;31440;48.584;13.460;2022-08-03T05:12:35;4.45;;;4.05;;
45730;SDS011;31440;48.584;13.460;2022-08-03T05:15:01;4.93;;;4.30;;
45730;SDS011;31440;48.584;13.460;2022-08-03T05:17:27;5.28;;;4.45;;
45730;SDS011;31440;48.584;13.460;2022-08-03T05:19:53;5.82;;;3.40;;
45730;SDS011;31440;48.584;13.460;2022-08-03T05:22:19;4.90;;;4.03;;
45730;SDS011;31440;48.584;13.460;2022-08-03T05:24:45;6.07;;;3.65;;
45730;SDS011;31440;48.584;13.460;2022-08-03T05:27:11;4.60;;;3.92;;
45730;SDS011;31440;48.584;13.460;2022-08-03T05:29:43;3.65;;;3.35;;
45730;SDS011;31440;48.584;13.460;2022-08-03T05:32:13;6.57;;;3.78;;
45730;SDS011;31440;48.584;13.460;2022-08-03T05:34:39;5.32;;;3.65;;
45730;SDS011;31440;48.584;13.460;2022-08-03T05:37:04;4.63;;;3.75;;
45730;SDS011;31440;48.584;13.460;2022-08-03T05:39:31;4.70;;;3.40;;
45730;SDS011;31440;48.584;13.460;2022-08-03T05:41:57;9.23;;;4.15;;
45730;SDS011;31440;48.584;13.460;2022-08-03T05:44:23;4.90;;;3.90;;
45730;SDS011;31440;48.584;13.460;2022-08-03T05:46:51;4.28;;;3.88;;
45730;SDS011;31440;48.584;13.460;2022-08-03T05:49:17;6.60;;;4.03;;
45730;SDS011;31440;48.584;13.460;2022-08-03T05:51:43;4.30;;;3.80;;
45730;SDS011;31440;48.584;13.460;2022-08-03T05:54:08;4.57;;;3.90;;
45730;SDS011;31440;48.584;13.460;2022-08-03T05:56:34;5.40;;;4.22;;
45730;SDS011;31440;48.584;13.460;2022-08-03T05:58:59;4.97;;;4.10;;
45730;SDS011;31440;48.584;13.460;2022-08-03T06:01:25;4.32;;;3.92;;
45730;SDS011;31440;48.584;13.460;2022-08-03T06:03:51;3.53;;;3.25;;
45730;SDS011;31440;48.584;13.460;2022-08-03T06:06:17;3.72;;;3.42;;
45730;SDS011;31440;48.584;13.460;2022-08-03T06:08:42;5.18;;;3.30;;
45730;SDS011;31440;48.584;13.460;2022-08-03T06:11:09;5.88;;;3.20;;
45730;SDS011;31440;48.584;13.460;2022-08-03T06:13:35;3.63;;;3.30;;
45730;SDS011;31440;48.584;13.460;2022-08-03T06:16:00;3.33;;;3.03;;
45730;SDS011;31440;48.584;13.460;2022-08-03T06:18:26;3.95;;;3.38;;
45730;SDS011;31440;48.584;13.460;2022-08-03T06:20:52;2.80;;;2.60;;
45730;SDS011;31440;48.584;13.460;2022-08-03T06:23:18;4.25;;;3.10;;
45730;SDS011;31440;48.584;13.460;2022-08-03T06:25:44;7.13;;;3.47;;
45730;SDS011;31440;48.584;13.460;2022-08-03T06:28:11;2.92;;;2.72;;
45730;SDS011;31440;48.584;13.460;2022-08-03T06:30:38;5.13;;;2.65;;
45730;SDS011;31440;48.584;13.460;2022-08-03T06:33:04;4.50;;;2.80;;
45730;SDS011;31440;48.584;13.460;2022-08-03T06:35:30;3.30;;;3.00;;
45730;SDS011;31440;48.584;13.460;2022-08-03T06:37:55;3.10;;;2.80;;
45730;SDS011;31440;48.584;13.460;2022-08-03T06:40:22;2.63;;;2.42;;
45730;SDS011;31440;48.584;13.460;2022-08-03T06:42:59;3.80;;;2.78;;
45730;SDS011;31440;48.584;13.460;2022-08-03T06:45:26;3.28;;;2.70;;
45730;SDS011;31440;48.584;13.460;2022-08-03T06:48:08;3.42;;;2.90;;
45730;SDS011;31440;48.584;13.460;2022-08-03T06:50:36;7.53;;;2.92;;
45730;SDS011;31440;48.584;13.460;2022-08-03T06:53:02;5.13;;;2.85;;
45730;SDS011;31440;48.584;13.460;2022-08-03T06:55:29;3.55;;;2.60;;
45730;SDS011;31440;48.584;13.460;2022-08-03T06:57:55;4.28;;;2.63;;
45730;SDS011;31440;48.584;13.460;2022-08-03T07:00:21;2.70;;;2.50;;
45730;SDS011;31440;48.584;13.460;2022-08-03T07:02:47;3.70;;;3.40;;
45730;SDS011;31440;48.584;13.460;2022-08-03T07:05:13;2.80;;;2.60;;
45730;SDS011;31440;48.584;13.460;2022-08-03T07:07:39;3.63;;;2.83;;
45730;SDS011;31440;48.584;13.460;2022-08-03T07:10:05;2.33;;;2.13;;
45730;SDS011;31440;48.584;13.460;2022-08-03T07:12:32;2.20;;;2.00;;
45730;SDS011;31440;48.584;13.460;2022-08-03T07:14:59;2.65;;;2.45;;
45730;SDS011;31440;48.584;13.460;2022-08-03T07:17:25;3.42;;;2.00;;
45730;SDS011;31440;48.584;13.460;2022-08-03T07:19:51;3.75;;;2.60;;
45730;SDS011;31440;48.584;13.460;2022-08-03T07:22:17;4.43;;;2.08;;
45730;SDS011;31440;48.584;13.460;2022-08-03T07:24:42;2.53;;;2.10;;
45730;SDS011;31440;48.584;13.460;2022-08-03T07:27:08;2.53;;;2.00;;
45730;SDS011;31440;48.584;13.460;2022-08-03T07:29:35;4.05;;;2.90;;
45730;SDS011;31440;48.584;13.460;2022-08-03T07:32:01;3.38;;;2.00;;
45730;SDS011;31440;48.584;13.460;2022-08-03T07:34:28;4.50;;;2.17;;
45730;SDS011;31440;48.584;13.460;2022-08-03T07:36:54;4.07;;;2.75;;
45730;SDS011;31440;48.584;13.460;2022-08-03T07:39:19;3.15;;;2.53;;
45730;SDS011;31440;48.584;13.460;2022-08-03T07:41:45;4.70;;;2.97;;
45730;SDS011;31440;48.584;13.460;2022-08-03T07:44:11;2.67;;;2.30;;
45730;SDS011;31440;48.584;13.460;2022-08-03T07:46:37;2.75;;;2.28;;
45730;SDS011;31440;48.584;13.460;2022-08-03T07:49:02;3.50;;;2.55;;
45730;SDS011;31440;48.584;13.460;2022-08-03T07:51:28;2.65;;;2.42;;
45730;SDS011;31440;48.584;13.460;2022-08-03T07:53:53;2.63;;;2.42;;
45730;SDS011;31440;48.584;13.460;2022-08-03T07:56:22;3.15;;;2.63;;
45730;SDS011;31440;48.584;13.460;2022-08-03T07:58:49;2.92;;;2.63;;
45730;SDS011;31440;48.584;13.460;2022-08-03T08:01:15;2.30;;;2.10;;
45730;SDS011;31440;48.584;13.460;2022-08-03T08:03:44;2.63;;;2.40;;
45730;SDS011;31440;48.584;13.460;2022-08-03T08:06:13;4.68;;;2.45;;
45730;SDS011;31440;48.584;13.460;2022-08-03T08:08:39;5.38;;;2.67;;
45730;SDS011;31440;48.584;13.460;2022-08-03T08:11:05;2.70;;;2.50;;
45730;SDS011;31440;48.584;13.460;2022-08-03T08:13:31;2.63;;;2.42;;
45730;SDS011;31440;48.584;13.460;2022-08-03T08:15:57;3.67;;;2.42;;
45730;SDS011;31440;48.584;13.460;2022-08-03T08:18:23;2.15;;;2.00;;
45730;SDS011;31440;48.584;13.460;2022-08-03T08:20:49;3.60;;;2.30;;
45730;SDS011;31440;48.584;13.460;2022-08-03T08:23:15;2.85;;;2.40;;
45730;SDS011;31440;48.584;13.460;2022-08-03T08:25:47;4.45;;;2.63;;
45730;SDS011;31440;48.584;13.460;2022-08-03T08:28:13;2.50;;;2.30;;
45730;SDS011;31440;48.584;13.460;2022-08-03T08:30:38;2.53;;;2.33;;
45730;SDS011;31440;48.584;13.460;2022-08-03T08:33:04;2.90;;;2.60;;
45730;SDS011;31440;48.584;13.460;2022-08-03T08:35:29;2.15;;;2.05;;
45730;SDS011;31440;48.584;13.460;2022-08-03T08:37:55;2.22;;;2.05;;
45730;SDS011;31440;48.584;13.460;2022-08-03T08:40:21;5.28;;;2.50;;
45730;SDS011;31440;48.584;13.460;2022-08-03T08:42:47;2.30;;;2.05;;
45730;SDS011;31440;48.584;13.460;2022-08-03T08:45:13;6.13;;;2.63;;
45730;SDS011;31440;48.584;13.460;2022-08-03T08:47:40;3.58;;;2.00;;
45730;SDS011;31440;48.584;13.460;2022-08-03T08:50:09;2.20;;;2.00;;
45730;SDS011;31440;48.584;13.460;2022-08-03T08:52:35;4.78;;;1.95;;
45730;SDS011;31440;48.584;13.460;2022-08-03T08:55:04;2.22;;;2.10;;
45730;SDS011;31440;48.584;13.460;2022-08-03T08:57:33;2.15;;;1.95;;
45730;SDS011;31440;48.584;13.460;2022-08-03T09:02:38;2.53;;;2.30;;
45730;SDS011;31440;48.584;13.460;2022-08-03T09:05:09;2.17;;;1.98;;
45730;SDS011;31440;48.584;13.460;2022-08-03T09:07:37;3.50;;;2.08;;
45730;SDS011;31440;48.584;13.460;2022-08-03T09:10:03;2.35;;;2.15;;
45730;SDS011;31440;48.584;13.460;2022-08-03T09:12:30;2.13;;;1.92;;
45730;SDS011;31440;48.584;13.460;2022-08-03T09:17:47;2.22;;;2.03;;
45730;SDS011;31440;48.584;13.460;2022-08-03T09:20:13;2.83;;;2.17;;
45730;SDS011;31440;48.584;13.460;2022-08-03T09:30:28;2.47;;;2.28;;
45730;SDS011;31440;48.584;13.460;2022-08-03T09:32:58;2.22;;;2.08;;
45730;SDS011;31440;48.584;13.460;2022-08-03T09:35:25;2.13;;;2.00;;
45730;SDS011;31440;48.584;13.460;2022-08-03T09:38:08;1.92;;;1.83;;
45730;SDS011;31440;48.584;13.460;2022-08-03T09:40:35;2.55;;;2.35;;
45730;SDS011;31440;48.584;13.460;2022-08-03T09:43:01;2.10;;;1.90;;
45730;SDS011;31440;48.584;13.460;2022-08-03T09:45:27;2.15;;;1.95;;
45730;SDS011;31440;48.584;13.460;2022-08-03T09:47:54;3.15;;;2.00;;
45730;SDS011;31440;48.584;13.460;2022-08-03T09:50:21;2.05;;;1.88;;
45730;SDS011;31440;48.584;13.460;2022-08-03T09:52:46;2.08;;;1.67;;
45730;SDS011;31440;48.584;13.460;2022-08-03T09:55:15;2.00;;;1.90;;
45730;SDS011;31440;48.584;13.460;2022-08-03T09:57:41;2.38;;;1.75;;
45730;SDS011;31440;48.584;13.460;2022-08-03T10:00:11;1.73;;;1.60;;
45730;SDS011;31440;48.584;13.460;2022-08-03T10:02:39;2.00;;;1.83;;
45730;SDS011;31440;48.584;13.460;2022-08-03T10:05:06;1.60;;;1.50;;
45730;SDS011;31440;48.584;13.460;2022-08-03T10:07:47;6.07;;;1.90;;
45730;SDS011;31440;48.584;13.460;2022-08-03T10:10:14;1.73;;;1.63;;
45730;SDS011;31440;48.584;13.460;2022-08-03T10:12:41;2.50;;;1.80;;
45730;SDS011;31440;48.584;13.460;2022-08-03T10:15:08;1.77;;;1.67;;
45730;SDS011;31440;48.584;13.460;2022-08-03T10:17:35;1.58;;;1.48;;
45730;SDS011;31440;48.584;13.460;2022-08-03T10:20:01;1.48;;;1.38;;
45730;SDS011;31440;48.584;13.460;2022-08-03T10:22:31;2.30;;;1.85;;
45730;SDS011;31440;48.584;13.460;2022-08-03T10:27:32;1.60;;;1.50;;
45730;SDS011;31440;48.584;13.460;2022-08-03T10:30:01;2.20;;;1.88;;
45730;SDS011;31440;48.584;13.460;2022-08-03T10:35:04;1.65;;;1.55;;
45730;SDS011;31440;48.584;13.460;2022-08-03T10:37:33;1.70;;;1.60;;
45730;SDS011;31440;48.584;13.460;2022-08-03T10:40:08;2.25;;;1.42;;
45730;SDS011;31440;48.584;13.460;2022-08-03T10:42:37;1.40;;;1.30;;
45730;SDS011;31440;48.584;13.460;2022-08-03T10:45:17;1.70;;;1.60;;
45730;SDS011;31440;48.584;13.460;2022-08-03T10:47:44;1.40;;;1.40;;
45730;SDS011;31440;48.584;13.460;2022-08-03T10:50:15;1.55;;;1.45;;
45730;SDS011;31440;48.584;13.460;2022-08-03T10:53:01;1.50;;;1.40;;
45730;SDS011;31440;48.584;13.460;2022-08-03T10:55:35;2.28;;;1.45;;
45730;SDS011;31440;48.584;13.460;2022-08-03T11:01:14;1.27;;;1.23;;
45730;SDS011;31440;48.584;13.460;2022-08-03T11:06:18;2.50;;;1.40;;
45730;SDS011;31440;48.584;13.460;2022-08-03T11:08:50;2.05;;;1.40;;
45730;SDS011;31440;48.584;13.460;2022-08-03T11:11:33;1.25;;;1.23;;
45730;SDS011;31440;48.584;13.460;2022-08-03T11:14:02;1.20;;;1.20;;
45730;SDS011;31440;48.584;13.460;2022-08-03T11:16:49;3.78;;;1.60;;
45730;SDS011;31440;48.584;13.460;2022-08-03T11:19:43;1.60;;;1.50;;
45730;SDS011;31440;48.584;13.460;2022-08-03T11:22:09;1.58;;;1.48;;
45730;SDS011;31440;48.584;13.460;2022-08-03T11:32:51;1.40;;;1.33;;
45730;SDS011;31440;48.584;13.460;2022-08-03T11:35:22;1.40;;;1.30;;
45730;SDS011;31440;48.584;13.460;2022-08-03T11:41:00;1.88;;;1.40;;
45730;SDS011;31440;48.584;13.460;2022-08-03T11:48:47;1.40;;;1.40;;
45730;SDS011;31440;48.584;13.460;2022-08-03T11:56:19;1.40;;;1.30;;
45730;SDS011;31440;48.584;13.460;2022-08-03T11:58:46;1.40;;;1.30;;
45730;SDS011;31440;48.584;13.460;2022-08-03T12:01:18;1.70;;;1.48;;
45730;SDS011;31440;48.584;13.460;2022-08-03T12:03:44;1.13;;;1.13;;
45730;SDS011;31440;48.584;13.460;2022-08-03T12:06:11;4.43;;;1.40;;
45730;SDS011;31440;48.584;13.460;2022-08-03T12:08:38;1.00;;;1.00;;
45730;SDS011;31440;48.584;13.460;2022-08-03T12:11:05;1.50;;;1.40;;
45730;SDS011;31440;48.584;13.460;2022-08-03T12:13:49;1.50;;;1.40;;
45730;SDS011;31440;48.584;13.460;2022-08-03T12:16:24;1.52;;;1.38;;
45730;SDS011;31440;48.584;13.460;2022-08-03T12:19:00;1.50;;;1.38;;
45730;SDS011;31440;48.584;13.460;2022-08-03T12:21:27;1.10;;;1.10;;
45730;SDS011;31440;48.584;13.460;2022-08-03T12:24:00;1.50;;;1.40;;
45730;SDS011;31440;48.584;13.460;2022-08-03T12:26:28;1.60;;;1.42;;
45730;SDS011;31440;48.584;13.460;2022-08-03T12:28:54;1.42;;;1.33;;
45730;SDS011;31440;48.584;13.460;2022-08-03T12:31:19;2.30;;;1.58;;
45730;SDS011;31440;48.584;13.460;2022-08-03T12:34:03;1.10;;;1.10;;
45730;SDS011;31440;48.584;13.460;2022-08-03T12:36:33;2.90;;;1.48;;
45730;SDS011;31440;48.584;13.460;2022-08-03T12:39:00;1.33;;;1.23;;
45730;SDS011;31440;48.584;13.460;2022-08-03T12:41:34;1.48;;;1.27;;
45730;SDS011;31440;48.584;13.460;2022-08-03T12:44:01;1.23;;;1.10;;
45730;SDS011;31440;48.584;13.460;2022-08-03T12:46:33;3.53;;;1.15;;
45730;SDS011;31440;48.584;13.460;2022-08-03T12:49:10;1.55;;;1.20;;
45730;SDS011;31440;48.584;13.460;2022-08-03T12:54:08;1.50;;;1.40;;
45730;SDS011;31440;48.584;13.460;2022-08-03T12:56:34;1.88;;;1.30;;
45730;SDS011;31440;48.584;13.460;2022-08-03T12:59:23;1.23;;;1.23;;
45730;SDS011;31440;48.584;13.460;2022-08-03T13:01:50;1.00;;;1.00;;
45730;SDS011;31440;48.584;13.460;2022-08-03T13:04:29;1.55;;;1.45;;
45730;SDS011;31440;48.584;13.460;2022-08-03T13:07:03;1.20;;;1.10;;
45730;SDS011;31440;48.584;13.460;2022-08-03T13:09:39;1.23;;;1.17;;
45730;SDS011;31440;48.584;13.460;2022-08-03T13:14:40;1.15;;;1.15;;
45730;SDS011;31440;48.584;13.460;2022-08-03T13:17:06;8.02;;;1.52;;
45730;SDS011;31440;48.584;13.460;2022-08-03T13:19:32;1.10;;;1.10;;
45730;SDS011;31440;48.584;13.460;2022-08-03T13:21:58;2.33;;;1.00;;
45730;SDS011;31440;48.584;13.460;2022-08-03T13:24:24;1.40;;;1.30;;
45730;SDS011;31440;48.584;13.460;2022-08-03T13:26:49;1.00;;;1.00;;
45730;SDS011;31440;48.584;13.460;2022-08-03T13:29:15;1.90;;;1.02;;
45730;SDS011;31440;48.584;13.460;2022-08-03T13:31:41;1.10;;;1.10;;
45730;SDS011;31440;48.584;13.460;2022-08-03T13:34:07;1.42;;;1.33;;
45730;SDS011;31440;48.584;13.460;2022-08-03T13:36:33;1.30;;;1.30;;
45730;SDS011;31440;48.584;13.460;2022-08-03T13:38:59;1.75;;;1.20;;
45730;SDS011;31440;48.584;13.460;2022-08-03T13:41:25;3.63;;;1.30;;
45730;SDS011;31440;48.584;13.460;2022-08-03T13:43:50;2.67;;;1.38;;
45730;SDS011;31440;48.584;13.460;2022-08-03T13:46:16;1.70;;;1.13;;
45730;SDS011;31440;48.584;13.460;2022-08-03T13:48:41;1.27;;;1.17;;
45730;SDS011;31440;48.584;13.460;2022-08-03T13:51:07;1.27;;;1.15;;
45730;SDS011;31440;48.584;13.460;2022-08-03T13:53:32;1.88;;;1.10;;
45730;SDS011;31440;48.584;13.460;2022-08-03T13:55:58;0.95;;;0.95;;
45730;SDS011;31440;48.584;13.460;2022-08-03T13:58:24;1.20;;;1.20;;
45730;SDS011;31440;48.584;13.460;2022-08-03T14:00:49;2.08;;;1.20;;
45730;SDS011;31440;48.584;13.460;2022-08-03T14:03:15;1.38;;;1.20;;
45730;SDS011;31440;48.584;13.460;2022-08-03T14:05:41;1.10;;;1.10;;
45730;SDS011;31440;48.584;13.460;2022-08-03T14:08:07;1.10;;;1.10;;
45730;SDS011;31440;48.584;13.460;2022-08-03T14:10:38;1.33;;;1.23;;
45730;SDS011;31440;48.584;13.460;2022-08-03T14:13:06;1.15;;;1.10;;
45730;SDS011;31440;48.584;13.460;2022-08-03T14:15:32;1.45;;;1.35;;
45730;SDS011;31440;48.584;13.460;2022-08-03T14:17:57;1.48;;;1.38;;
45730;SDS011;31440;48.584;13.460;2022-08-03T14:20:23;1.40;;;1.30;;
45730;SDS011;31440;48.584;13.460;2022-08-03T14:22:49;1.83;;;1.20;;
45730;SDS011;31440;48.584;13.460;2022-08-03T14:25:14;1.55;;;1.20;;
45730;SDS011;31440;48.584;13.460;2022-08-03T14:27:40;4.18;;;1.13;;
45730;SDS011;31440;48.584;13.460;2022-08-03T14:30:05;1.38;;;1.05;;
45730;SDS011;31440;48.584;13.460;2022-08-03T14:32:31;1.73;;;1.10;;
45730;SDS011;31440;48.584;13.460;2022-08-03T14:34:57;1.42;;;1.33;;
45730;SDS011;31440;48.584;13.460;2022-08-03T14:37:22;1.25;;;1.15;;
45730;SDS011;31440;48.584;13.460;2022-08-03T14:39:48;1.10;;;1.00;;
45730;SDS011;31440;48.584;13.460;2022-08-03T14:42:14;1.00;;;1.00;;
45730;SDS011;31440;48.584;13.460;2022-08-03T14:44:40;1.38;;;1.27;;
45730;SDS011;31440;48.584;13.460;2022-08-03T14:47:06;1.38;;;1.27;;
45730;SDS011;31440;48.584;13.460;2022-08-03T14:49:32;1.17;;;1.17;;
45730;SDS011;31440;48.584;13.460;2022-08-03T14:51:58;1.30;;;1.20;;
45730;SDS011;31440;48.584;13.460;2022-08-03T14:54:24;1.30;;;1.10;;
45730;SDS011;31440;48.584;13.460;2022-08-03T14:56:50;1.13;;;1.08;;
45730;SDS011;31440;48.584;13.460;2022-08-03T14:59:15;1.08;;;1.08;;
45730;SDS011;31440;48.584;13.460;2022-08-03T15:01:41;2.70;;;1.23;;
45730;SDS011;31440;48.584;13.460;2022-08-03T15:04:06;1.33;;;1.23;;
45730;SDS011;31440;48.584;13.460;2022-08-03T15:06:32;1.05;;;1.05;;
45730;SDS011;31440;48.584;13.460;2022-08-03T15:08:58;1.23;;;1.13;;
45730;SDS011;31440;48.584;13.460;2022-08-03T15:11:23;2.05;;;1.45;;
45730;SDS011;31440;48.584;13.460;2022-08-03T15:13:49;1.40;;;1.30;;
45730;SDS011;31440;48.584;13.460;2022-08-03T15:16:14;1.20;;;1.20;;
45730;SDS011;31440;48.584;13.460;2022-08-03T15:18:40;2.25;;;1.45;;
45730;SDS011;31440;48.584;13.460;2022-08-03T15:21:06;1.80;;;1.38;;
45730;SDS011;31440;48.584;13.460;2022-08-03T15:23:31;2.63;;;1.08;;
45730;SDS011;31440;48.584;13.460;2022-08-03T15:25:57;2.03;;;1.30;;
45730;SDS011;31440;48.584;13.460;2022-08-03T15:28:22;2.38;;;1.10;;
45730;SDS011;31440;48.584;13.460;2022-08-03T15:30:50;1.80;;;1.30;;
45730;SDS011;31440;48.584;13.460;2022-08-03T15:33:16;1.70;;;1.60;;
45730;SDS011;31440;48.584;13.460;2022-08-03T15:35:42;4.53;;;2.00;;